sensor_id;sensor_type;location;lat;lon;timestamp;pressure;altitude;pressure_sealevel;temperature;humidity
46087;BME280;31824;49.648;8.640;2024-02-23T00:00:17;98142.56;;;8.38;100.00
46087;BME280;31824;49.648;8.640;2024-02-23T00:03:19;98155.09;;;8.30;100.00
46087;BME280;31824;49.648;8.640;2024-02-23T00:06:21;98171.34;;;8.38;100.00
46087;BME280;31824;49.648;8.640;2024-02-23T00:09:28;98174.16;;;8.41;100.00
46087;BME280;31824;49.648;8.640;2024-02-23T00:12:30;98177.94;;;8.33;100.00
46087;BME280;31824;49.648;8.640;2024-02-23T00:15:33;98203.06;;;8.31;100.00
46087;BME280;31824;49.648;8.640;2024-02-23T00:18:35;98220.41;;;8.28;100.00
46087;BME280;31824;49.648;8.640;2024-02-23T00:21:38;98222.38;;;8.19;100.00
46087;BME280;31824;49.648;8.640;2024-02-23T00:24:40;98236.72;;;8.13;100.00
46087;BME280;31824;49.648;8.640;2024-02-23T00:27:42;98243.59;;;7.99;100.00
46087;BME280;31824;49.648;8.640;2024-02-23T00:30:46;98247.84;;;7.85;100.00
46087;BME280;31824;49.648;8.640;2024-02-23T00:33:49;98253.31;;;7.76;100.00
46087;BME280;31824;49.648;8.640;2024-02-23T00:36:50;98247.88;;;7.61;100.00
46087;BME280;31824;49.648;8.640;2024-02-23T00:39:52;98227.72;;;7.47;100.00
46087;BME280;31824;49.648;8.640;2024-02-23T00:42:54;98224.19;;;7.34;100.00
46087;BME280;31824;49.648;8.640;2024-02-23T00:45:57;98240.31;;;7.29;100.00
46087;BME280;31824;49.648;8.640;2024-02-23T00:48:59;98230.47;;;7.13;100.00
46087;BME280;31824;49.648;8.640;2024-02-23T00:52:01;98233.06;;;7.13;100.00
46087;BME280;31824;49.648;8.640;2024-02-23T00:55:03;98232.72;;;7.20;100.00
46087;BME280;31824;49.648;8.640;2024-02-23T00:58:05;98235.13;;;7.17;100.00
46087;BME280;31824;49.648;8.640;2024-02-23T01:01:08;98240.44;;;7.18;100.00
46087;BME280;31824;49.648;8.640;2024-02-23T01:04:10;98242.25;;;7.07;100.00
46087;BME280;31824;49.648;8.640;2024-02-23T01:07:12;98252.34;;;7.03;100.00
46087;BME280;31824;49.648;8.640;2024-02-23T01:10:14;98238.06;;;6.98;100.00
46087;BME280;31824;49.648;8.640;2024-02-23T01:13:17;98241.44;;;6.85;100.00
46087;BME280;31824;49.648;8.640;2024-02-23T01:16:20;98258.50;;;7.03;100.00
46087;BME280;31824;49.648;8.640;2024-02-23T01:19:21;98255.78;;;7.02;100.00
46087;BME280;31824;49.648;8.640;2024-02-23T01:22:23;98282.78;;;7.02;100.00
46087;BME280;31824;49.648;8.640;2024-02-23T01:25:25;98284.03;;;7.19;100.00
46087;BME280;31824;49.648;8.640;2024-02-23T01:28:27;98282.22;;;7.42;100.00
46087;BME280;31824;49.648;8.640;2024-02-23T01:31:30;98288.69;;;7.35;100.00
46087;BME280;31824;49.648;8.640;2024-02-23T01:34:32;98291.66;;;7.28;100.00
46087;BME280;31824;49.648;8.640;2024-02-23T01:37:35;98294.94;;;7.37;100.00
46087;BME280;31824;49.648;8.640;2024-02-23T01:40:37;98308.91;;;7.50;100.00
46087;BME280;31824;49.648;8.640;2024-02-23T01:43:38;98364.91;;;7.41;100.00
46087;BME280;31824;49.648;8.640;2024-02-23T01:46:42;98378.81;;;6.72;100.00
46087;BME280;31824;49.648;8.640;2024-02-23T01:49:45;98364.50;;;6.67;100.00
46087;BME280;31824;49.648;8.640;2024-02-23T01:52:48;98350.72;;;6.58;100.00
46087;BME280;31824;49.648;8.640;2024-02-23T01:55:50;98367.00;;;6.44;100.00
46087;BME280;31824;49.648;8.640;2024-02-23T01:58:53;98350.94;;;6.27;100.00
46087;BME280;31824;49.648;8.640;2024-02-23T02:01:58;98365.44;;;6.23;100.00
46087;BME280;31824;49.648;8.640;2024-02-23T02:05:00;98371.63;;;6.14;100.00
46087;BME280;31824;49.648;8.640;2024-02-23T02:08:04;98381.81;;;6.11;100.00
46087;BME280;31824;49.648;8.640;2024-02-23T02:11:06;98396.16;;;6.05;100.00
46087;BME280;31824;49.648;8.640;2024-02-23T02:14:08;98392.16;;;5.99;100.00
46087;BME280;31824;49.648;8.640;2024-02-23T02:17:13;98408.19;;;5.83;100.00
46087;BME280;31824;49.648;8.640;2024-02-23T02:20:18;98401.31;;;5.73;100.00
46087;BME280;31824;49.648;8.640;2024-02-23T02:23:25;98410.97;;;5.64;100.00
46087;BME280;31824;49.648;8.640;2024-02-23T02:26:28;98404.63;;;5.50;100.00
46087;BME280;31824;49.648;8.640;2024-02-23T02:29:30;98416.09;;;5.31;100.00
46087;BME280;31824;49.648;8.640;2024-02-23T02:32:33;98411.31;;;5.36;100.00
46087;BME280;31824;49.648;8.640;2024-02-23T02:35:38;98427.28;;;5.30;100.00
46087;BME280;31824;49.648;8.640;2024-02-23T02:38:39;98428.09;;;5.29;100.00
46087;BME280;31824;49.648;8.640;2024-02-23T02:41:41;98427.69;;;5.24;100.00
46087;BME280;31824;49.648;8.640;2024-02-23T02:44:43;98423.53;;;5.16;100.00
46087;BME280;31824;49.648;8.640;2024-02-23T02:47:46;98423.69;;;5.07;100.00
46087;BME280;31824;49.648;8.640;2024-02-23T02:50:48;98418.84;;;5.12;100.00
46087;BME280;31824;49.648;8.640;2024-02-23T02:53:54;98411.56;;;5.18;100.00
46087;BME280;31824;49.648;8.640;2024-02-23T02:56:56;98419.25;;;5.17;100.00
46087;BME280;31824;49.648;8.640;2024-02-23T02:59:58;98420.69;;;5.13;100.00
46087;BME280;31824;49.648;8.640;2024-02-23T03:03:01;98415.75;;;5.06;100.00
46087;BME280;31824;49.648;8.640;2024-02-23T03:06:03;98405.06;;;5.13;100.00
46087;BME280;31824;49.648;8.640;2024-02-23T03:09:05;98400.75;;;5.14;100.00
46087;BME280;31824;49.648;8.640;2024-02-23T03:12:07;98412.47;;;5.29;100.00
46087;BME280;31824;49.648;8.640;2024-02-23T03:15:09;98403.34;;;5.45;100.00
46087;BME280;31824;49.648;8.640;2024-02-23T03:18:13;98417.25;;;5.55;100.00
46087;BME280;31824;49.648;8.640;2024-02-23T03:21:16;98421.75;;;5.68;100.00
46087;BME280;31824;49.648;8.640;2024-02-23T03:24:18;98412.38;;;5.70;100.00
46087;BME280;31824;49.648;8.640;2024-02-23T03:27:19;98420.34;;;5.72;100.00
46087;BME280;31824;49.648;8.640;2024-02-23T03:30:23;98420.56;;;5.75;100.00
46087;BME280;31824;49.648;8.640;2024-02-23T03:33:26;98421.56;;;5.87;100.00
46087;BME280;31824;49.648;8.640;2024-02-23T03:36:28;98432.50;;;5.94;100.00
46087;BME280;31824;49.648;8.640;2024-02-23T03:39:30;98422.50;;;5.98;100.00
46087;BME280;31824;49.648;8.640;2024-02-23T03:42:33;98413.38;;;5.93;100.00
46087;BME280;31824;49.648;8.640;2024-02-23T03:45:35;98405.81;;;5.96;100.00
46087;BME280;31824;49.648;8.640;2024-02-23T03:48:38;98413.88;;;5.99;100.00
46087;BME280;31824;49.648;8.640;2024-02-23T03:51:40;98409.19;;;5.95;100.00
46087;BME280;31824;49.648;8.640;2024-02-23T03:54:42;98420.38;;;5.94;100.00
46087;BME280;31824;49.648;8.640;2024-02-23T03:57:43;98419.38;;;5.92;100.00
46087;BME280;31824;49.648;8.640;2024-02-23T04:00:48;98409.06;;;5.94;100.00
46087;BME280;31824;49.648;8.640;2024-02-23T04:03:51;98421.97;;;5.92;100.00
46087;BME280;31824;49.648;8.640;2024-02-23T04:06:54;98409.84;;;5.92;100.00
46087;BME280;31824;49.648;8.640;2024-02-23T04:09:55;98417.28;;;5.88;100.00
46087;BME280;31824;49.648;8.640;2024-02-23T04:12:57;98417.06;;;5.85;100.00
46087;BME280;31824;49.648;8.640;2024-02-23T04:16:00;98419.13;;;5.89;100.00
46087;BME280;31824;49.648;8.640;2024-02-23T04:19:04;98418.84;;;5.96;100.00
46087;BME280;31824;49.648;8.640;2024-02-23T04:22:06;98422.88;;;5.92;100.00
46087;BME280;31824;49.648;8.640;2024-02-23T04:25:10;98414.56;;;5.86;100.00
46087;BME280;31824;49.648;8.640;2024-02-23T04:28:12;98419.13;;;5.89;100.00
46087;BME280;31824;49.648;8.640;2024-02-23T04:31:13;98423.91;;;5.95;100.00
46087;BME280;31824;49.648;8.640;2024-02-23T04:34:16;98432.41;;;5.92;100.00
46087;BME280;31824;49.648;8.640;2024-02-23T04:37:18;98435.41;;;5.86;100.00
46087;BME280;31824;49.648;8.640;2024-02-23T04:40:20;98436.97;;;5.84;100.00
46087;BME280;31824;49.648;8.640;2024-02-23T04:43:22;98428.78;;;5.80;100.00
46087;BME280;31824;49.648;8.640;2024-02-23T04:46:24;98426.19;;;5.69;100.00
46087;BME280;31824;49.648;8.640;2024-02-23T04:49:27;98441.47;;;5.65;100.00
46087;BME280;31824;49.648;8.640;2024-02-23T04:52:29;98443.66;;;5.60;100.00
46087;BME280;31824;49.648;8.640;2024-02-23T04:55:31;98443.81;;;5.62;100.00
46087;BME280;31824;49.648;8.640;2024-02-23T04:58:32;98441.59;;;5.66;100.00
46087;BME280;31824;49.648;8.640;2024-02-23T05:01:37;98441.81;;;5.69;100.00
46087;BME280;31824;49.648;8.640;2024-02-23T05:04:41;98447.03;;;5.69;100.00
46087;BME280;31824;49.648;8.640;2024-02-23T05:07:42;98449.09;;;5.73;100.00
46087;BME280;31824;49.648;8.640;2024-02-23T05:10:44;98443.91;;;5.73;100.00
46087;BME280;31824;49.648;8.640;2024-02-23T05:13:47;98441.59;;;5.66;100.00
46087;BME280;31824;49.648;8.640;2024-02-23T05:16:48;98427.25;;;5.61;100.00
46087;BME280;31824;49.648;8.640;2024-02-23T05:19:51;98429.91;;;5.51;100.00
46087;BME280;31824;49.648;8.640;2024-02-23T05:22:53;98431.16;;;5.66;100.00
46087;BME280;31824;49.648;8.640;2024-02-23T05:25:55;98429.31;;;5.65;100.00
46087;BME280;31824;49.648;8.640;2024-02-23T05:28:57;98429.44;;;5.67;100.00
46087;BME280;31824;49.648;8.640;2024-02-23T05:31:59;98420.03;;;5.79;100.00
46087;BME280;31824;49.648;8.640;2024-02-23T05:35:02;98413.38;;;5.93;100.00
46087;BME280;31824;49.648;8.640;2024-02-23T05:38:05;98431.09;;;5.87;100.00
46087;BME280;31824;49.648;8.640;2024-02-23T05:41:11;98425.13;;;5.78;100.00
46087;BME280;31824;49.648;8.640;2024-02-23T05:44:13;98436.75;;;5.71;100.00
46087;BME280;31824;49.648;8.640;2024-02-23T05:47:15;98443.66;;;5.81;100.00
46087;BME280;31824;49.648;8.640;2024-02-23T05:50:19;98441.81;;;5.80;100.00
46087;BME280;31824;49.648;8.640;2024-02-23T05:53:20;98452.22;;;5.80;100.00
46087;BME280;31824;49.648;8.640;2024-02-23T05:56:22;98447.69;;;5.77;100.00
46087;BME280;31824;49.648;8.640;2024-02-23T05:59:26;98445.97;;;5.78;100.00
46087;BME280;31824;49.648;8.640;2024-02-23T06:02:29;98446.50;;;5.73;100.00
46087;BME280;31824;49.648;8.640;2024-02-23T06:05:32;98457.97;;;5.75;100.00
46087;BME280;31824;49.648;8.640;2024-02-23T06:08:34;98454.44;;;5.75;100.00
46087;BME280;31824;49.648;8.640;2024-02-23T06:11:36;98456.81;;;5.72;100.00
46087;BME280;31824;49.648;8.640;2024-02-23T06:14:38;98463.72;;;5.71;100.00
46087;BME280;31824;49.648;8.640;2024-02-23T06:17:40;98474.25;;;5.73;100.00
46087;BME280;31824;49.648;8.640;2024-02-23T06:20:43;98477.53;;;5.70;100.00
46087;BME280;31824;49.648;8.640;2024-02-23T06:23:45;98481.84;;;5.70;100.00
46087;BME280;31824;49.648;8.640;2024-02-23T06:26:48;98469.34;;;5.66;100.00
46087;BME280;31824;49.648;8.640;2024-02-23T06:29:50;98479.59;;;5.64;100.00
46087;BME280;31824;49.648;8.640;2024-02-23T06:32:52;98482.59;;;5.69;100.00
46087;BME280;31824;49.648;8.640;2024-02-23T06:35:55;98487.41;;;5.64;100.00
46087;BME280;31824;49.648;8.640;2024-02-23T06:38:57;98485.34;;;5.60;100.00
46087;BME280;31824;49.648;8.640;2024-02-23T06:41:59;98495.91;;;5.62;100.00
46087;BME280;31824;49.648;8.640;2024-02-23T06:45:03;98493.44;;;5.63;100.00
46087;BME280;31824;49.648;8.640;2024-02-23T06:48:06;98498.34;;;5.60;100.00
46087;BME280;31824;49.648;8.640;2024-02-23T06:51:09;98496.41;;;5.57;100.00
46087;BME280;31824;49.648;8.640;2024-02-23T06:54:11;98485.75;;;5.44;100.00
46087;BME280;31824;49.648;8.640;2024-02-23T06:57:13;98486.28;;;5.40;100.00
46087;BME280;31824;49.648;8.640;2024-02-23T07:00:15;98487.44;;;5.33;100.00
46087;BME280;31824;49.648;8.640;2024-02-23T07:03:17;98490.94;;;5.23;100.00
46087;BME280;31824;49.648;8.640;2024-02-23T07:06:21;98479.75;;;5.24;100.00
46087;BME280;31824;49.648;8.640;2024-02-23T07:09:23;98479.38;;;5.20;100.00
46087;BME280;31824;49.648;8.640;2024-02-23T07:12:24;98489.13;;;5.12;100.00
46087;BME280;31824;49.648;8.640;2024-02-23T07:15:28;98491.47;;;5.09;100.00
46087;BME280;31824;49.648;8.640;2024-02-23T07:18:31;98490.41;;;5.07;100.00
46087;BME280;31824;49.648;8.640;2024-02-23T07:21:35;98495.09;;;5.01;100.00
46087;BME280;31824;49.648;8.640;2024-02-23T07:24:41;98496.78;;;5.00;100.00
46087;BME280;31824;49.648;8.640;2024-02-23T07:27:43;98500.06;;;4.98;100.00
46087;BME280;31824;49.648;8.640;2024-02-23T07:30:45;98509.28;;;4.94;100.00
46087;BME280;31824;49.648;8.640;2024-02-23T07:33:47;98507.69;;;4.96;100.00
46087;BME280;31824;49.648;8.640;2024-02-23T07:36:52;98510.28;;;4.96;100.00
46087;BME280;31824;49.648;8.640;2024-02-23T07:39:54;98518.50;;;4.90;100.00
46087;BME280;31824;49.648;8.640;2024-02-23T07:42:56;98506.66;;;5.04;100.00
46087;BME280;31824;49.648;8.640;2024-02-23T07:45:58;98510.06;;;5.03;100.00
46087;BME280;31824;49.648;8.640;2024-02-23T07:49:00;98499.78;;;5.05;100.00
46087;BME280;31824;49.648;8.640;2024-02-23T07:52:04;98500.81;;;5.07;100.00
46087;BME280;31824;49.648;8.640;2024-02-23T07:55:07;98503.19;;;5.14;100.00
46087;BME280;31824;49.648;8.640;2024-02-23T07:58:09;98509.69;;;5.09;100.00
46087;BME280;31824;49.648;8.640;2024-02-23T08:01:11;98516.09;;;5.13;100.00
46087;BME280;31824;49.648;8.640;2024-02-23T08:04:13;98524.41;;;5.29;100.00
46087;BME280;31824;49.648;8.640;2024-02-23T08:07:16;98530.66;;;5.52;100.00
46087;BME280;31824;49.648;8.640;2024-02-23T08:10:18;98530.66;;;5.62;100.00
46087;BME280;31824;49.648;8.640;2024-02-23T08:13:20;98531.44;;;5.71;100.00
46087;BME280;31824;49.648;8.640;2024-02-23T08:16:22;98538.22;;;5.80;100.00
46087;BME280;31824;49.648;8.640;2024-02-23T08:19:24;98540.44;;;5.96;100.00
46087;BME280;31824;49.648;8.640;2024-02-23T08:22:27;98539.88;;;6.10;100.00
46087;BME280;31824;49.648;8.640;2024-02-23T08:25:29;98540.66;;;6.19;100.00
46087;BME280;31824;49.648;8.640;2024-02-23T08:28:31;98533.31;;;6.25;100.00
46087;BME280;31824;49.648;8.640;2024-02-23T08:31:33;98536.97;;;6.28;100.00
46087;BME280;31824;49.648;8.640;2024-02-23T08:34:34;98531.88;;;6.39;100.00
46087;BME280;31824;49.648;8.640;2024-02-23T08:37:38;98533.16;;;6.45;100.00
46087;BME280;31824;49.648;8.640;2024-02-23T08:40:40;98533.16;;;6.45;100.00
46087;BME280;31824;49.648;8.640;2024-02-23T08:43:43;98533.75;;;6.52;100.00
46087;BME280;31824;49.648;8.640;2024-02-23T08:46:45;98536.75;;;6.57;100.00
46087;BME280;31824;49.648;8.640;2024-02-23T08:49:47;98526.69;;;6.62;100.00
46087;BME280;31824;49.648;8.640;2024-02-23T08:52:50;98530.16;;;6.72;100.00
46087;BME280;31824;49.648;8.640;2024-02-23T08:55:52;98527.91;;;6.77;100.00
46087;BME280;31824;49.648;8.640;2024-02-23T08:58:53;98532.03;;;6.85;100.00
46087;BME280;31824;49.648;8.640;2024-02-23T09:01:56;98520.38;;;6.92;100.00
46087;BME280;31824;49.648;8.640;2024-02-23T09:04:58;98517.38;;;6.98;100.00
46087;BME280;31824;49.648;8.640;2024-02-23T09:08:01;98519.91;;;7.08;100.00
46087;BME280;31824;49.648;8.640;2024-02-23T09:11:03;98525.25;;;7.09;100.00
46087;BME280;31824;49.648;8.640;2024-02-23T09:14:05;98517.53;;;7.11;100.00
46087;BME280;31824;49.648;8.640;2024-02-23T09:17:07;98517.19;;;7.06;100.00
46087;BME280;31824;49.648;8.640;2024-02-23T09:20:11;98508.91;;;7.12;100.00
46087;BME280;31824;49.648;8.640;2024-02-23T09:23:14;98511.63;;;7.14;100.00
46087;BME280;31824;49.648;8.640;2024-02-23T09:26:16;98511.19;;;7.41;100.00
46087;BME280;31824;49.648;8.640;2024-02-23T09:29:19;98505.03;;;7.29;100.00
46087;BME280;31824;49.648;8.640;2024-02-23T09:32:21;98497.81;;;7.49;100.00
46087;BME280;31824;49.648;8.640;2024-02-23T09:35:23;98500.47;;;7.60;100.00
46087;BME280;31824;49.648;8.640;2024-02-23T09:38:26;98496.34;;;7.52;100.00
46087;BME280;31824;49.648;8.640;2024-02-23T09:41:29;98506.50;;;7.71;100.00
46087;BME280;31824;49.648;8.640;2024-02-23T09:44:32;98521.88;;;7.90;100.00
46087;BME280;31824;49.648;8.640;2024-02-23T09:47:38;98510.97;;;7.96;100.00
46087;BME280;31824;49.648;8.640;2024-02-23T09:50:41;98498.56;;;7.93;100.00
46087;BME280;31824;49.648;8.640;2024-02-23T09:53:45;98502.34;;;8.33;100.00
46087;BME280;31824;49.648;8.640;2024-02-23T09:56:51;98504.03;;;8.44;100.00
46087;BME280;31824;49.648;8.640;2024-02-23T09:59:54;98510.63;;;8.39;100.00
46087;BME280;31824;49.648;8.640;2024-02-23T10:02:57;98509.28;;;8.56;100.00
46087;BME280;31824;49.648;8.640;2024-02-23T10:06:00;98514.31;;;8.53;100.00
46087;BME280;31824;49.648;8.640;2024-02-23T10:09:05;98520.84;;;8.24;100.00
46087;BME280;31824;49.648;8.640;2024-02-23T10:12:08;98513.94;;;8.13;100.00
46087;BME280;31824;49.648;8.640;2024-02-23T10:15:10;98521.44;;;8.08;100.00
46087;BME280;31824;49.648;8.640;2024-02-23T10:18:12;98512.22;;;8.13;100.00
46087;BME280;31824;49.648;8.640;2024-02-23T10:21:14;98520.53;;;8.31;100.00
46087;BME280;31824;49.648;8.640;2024-02-23T10:24:18;98518.81;;;8.43;100.00
46087;BME280;31824;49.648;8.640;2024-02-23T10:27:21;98513.84;;;8.23;100.00
46087;BME280;31824;49.648;8.640;2024-02-23T10:30:24;98517.34;;;8.35;100.00
46087;BME280;31824;49.648;8.640;2024-02-23T10:33:28;98500.84;;;8.72;100.00
46087;BME280;31824;49.648;8.640;2024-02-23T10:36:30;98500.75;;;9.07;100.00
46087;BME280;31824;49.648;8.640;2024-02-23T10:39:35;98491.38;;;9.75;100.00
46087;BME280;31824;49.648;8.640;2024-02-23T10:42:39;98496.13;;;9.42;100.00
46087;BME280;31824;49.648;8.640;2024-02-23T10:45:42;98488.47;;;9.32;100.00
46087;BME280;31824;49.648;8.640;2024-02-23T10:48:45;98500.66;;;9.19;100.00
46087;BME280;31824;49.648;8.640;2024-02-23T10:51:47;98489.50;;;9.22;100.00
46087;BME280;31824;49.648;8.640;2024-02-23T10:54:52;98484.53;;;9.13;100.00
46087;BME280;31824;49.648;8.640;2024-02-23T10:57:55;98477.25;;;9.34;100.00
46087;BME280;31824;49.648;8.640;2024-02-23T11:00:59;98481.91;;;9.38;100.00
46087;BME280;31824;49.648;8.640;2024-02-23T11:04:03;98481.16;;;9.02;100.00
46087;BME280;31824;49.648;8.640;2024-02-23T11:07:13;98481.16;;;8.65;100.00
46087;BME280;31824;49.648;8.640;2024-02-23T11:10:16;98495.25;;;8.67;100.00
46087;BME280;31824;49.648;8.640;2024-02-23T11:13:29;98489.91;;;8.66;100.00
46087;BME280;31824;49.648;8.640;2024-02-23T11:16:32;98481.97;;;8.64;100.00
46087;BME280;31824;49.648;8.640;2024-02-23T11:19:35;98482.13;;;8.91;100.00
46087;BME280;31824;49.648;8.640;2024-02-23T11:22:38;98471.56;;;8.77;100.00
46087;BME280;31824;49.648;8.640;2024-02-23T11:25:42;98481.25;;;8.78;100.00
46087;BME280;31824;49.648;8.640;2024-02-23T11:28:47;98479.84;;;8.84;100.00
46087;BME280;31824;49.648;8.640;2024-02-23T11:31:51;98469.47;;;8.85;100.00
46087;BME280;31824;49.648;8.640;2024-02-23T11:34:57;98475.19;;;8.79;100.00
46087;BME280;31824;49.648;8.640;2024-02-23T11:38:03;98478.06;;;8.71;100.00
46087;BME280;31824;49.648;8.640;2024-02-23T11:41:08;98478.66;;;8.55;100.00
46087;BME280;31824;49.648;8.640;2024-02-23T11:44:10;98469.63;;;8.87;100.00
46087;BME280;31824;49.648;8.640;2024-02-23T11:47:15;98465.94;;;8.97;100.00
46087;BME280;31824;49.648;8.640;2024-02-23T11:50:18;98463.00;;;9.42;100.00
46087;BME280;31824;49.648;8.640;2024-02-23T11:53:23;98460.34;;;9.81;100.00
46087;BME280;31824;49.648;8.640;2024-02-23T11:56:28;98462.22;;;9.57;100.00
46087;BME280;31824;49.648;8.640;2024-02-23T11:59:32;98451.47;;;9.40;100.00
46087;BME280;31824;49.648;8.640;2024-02-23T12:02:35;98463.09;;;9.44;100.00
46087;BME280;31824;49.648;8.640;2024-02-23T12:05:36;98457.00;;;9.70;100.00
46087;BME280;31824;49.648;8.640;2024-02-23T12:08:39;98450.88;;;9.44;100.00
46087;BME280;31824;49.648;8.640;2024-02-23T12:11:45;98460.03;;;9.38;100.00
46087;BME280;31824;49.648;8.640;2024-02-23T12:14:47;98459.69;;;9.20;100.00
46087;BME280;31824;49.648;8.640;2024-02-23T12:17:49;98451.28;;;9.12;100.00
46087;BME280;31824;49.648;8.640;2024-02-23T12:20:52;98449.16;;;9.06;100.00
46087;BME280;31824;49.648;8.640;2024-02-23T12:23:54;98451.38;;;9.13;100.00
46087;BME280;31824;49.648;8.640;2024-02-23T12:26:57;98449.84;;;9.29;100.00
46087;BME280;31824;49.648;8.640;2024-02-23T12:29:59;98448.31;;;9.33;100.00
46087;BME280;31824;49.648;8.640;2024-02-23T12:33:04;98450.59;;;9.15;100.00
46087;BME280;31824;49.648;8.640;2024-02-23T12:36:08;98455.03;;;9.16;100.00
46087;BME280;31824;49.648;8.640;2024-02-23T12:39:10;98457.00;;;9.32;100.00
46087;BME280;31824;49.648;8.640;2024-02-23T12:42:13;98455.69;;;9.38;100.00
46087;BME280;31824;49.648;8.640;2024-02-23T12:45:15;98446.81;;;9.88;100.00
46087;BME280;31824;49.648;8.640;2024-02-23T12:48:17;98447.91;;;10.72;100.00
46087;BME280;31824;49.648;8.640;2024-02-23T12:51:19;98443.63;;;10.88;100.00
46087;BME280;31824;49.648;8.640;2024-02-23T12:54:20;98448.75;;;10.58;100.00
46087;BME280;31824;49.648;8.640;2024-02-23T12:57:23;98444.50;;;10.33;100.00
46087;BME280;31824;49.648;8.640;2024-02-23T13:00:25;98451.06;;;11.08;100.00
46087;BME280;31824;49.648;8.640;2024-02-23T13:03:28;98453.94;;;11.13;100.00
46087;BME280;31824;49.648;8.640;2024-02-23T13:06:30;98444.66;;;10.76;100.00
46087;BME280;31824;49.648;8.640;2024-02-23T13:09:32;98451.25;;;10.70;100.00
46087;BME280;31824;49.648;8.640;2024-02-23T13:12:35;98449.66;;;11.43;100.00
46087;BME280;31824;49.648;8.640;2024-02-23T13:15:37;98448.16;;;11.19;100.00
46087;BME280;31824;49.648;8.640;2024-02-23T13:18:39;98452.03;;;11.54;100.00
46087;BME280;31824;49.648;8.640;2024-02-23T13:21:41;98450.13;;;10.66;100.00
46087;BME280;31824;49.648;8.640;2024-02-23T13:24:42;98457.34;;;10.15;100.00
46087;BME280;31824;49.648;8.640;2024-02-23T13:27:45;98445.41;;;9.80;100.00
46087;BME280;31824;49.648;8.640;2024-02-23T13:30:47;98439.88;;;10.02;100.00
46087;BME280;31824;49.648;8.640;2024-02-23T13:33:49;98434.50;;;10.96;100.00
46087;BME280;31824;49.648;8.640;2024-02-23T13:36:51;98426.13;;;10.33;100.00
46087;BME280;31824;49.648;8.640;2024-02-23T13:39:54;98429.06;;;9.84;100.00
46087;BME280;31824;49.648;8.640;2024-02-23T13:42:57;98425.97;;;9.76;100.00
46087;BME280;31824;49.648;8.640;2024-02-23T13:45:59;98430.78;;;9.70;100.00
46087;BME280;31824;49.648;8.640;2024-02-23T13:49:04;98425.81;;;9.75;100.00
46087;BME280;31824;49.648;8.640;2024-02-23T13:52:07;98426.34;;;9.69;100.00
46087;BME280;31824;49.648;8.640;2024-02-23T13:55:09;98433.91;;;9.65;100.00
46087;BME280;31824;49.648;8.640;2024-02-23T13:58:12;98431.28;;;9.65;100.00
46087;BME280;31824;49.648;8.640;2024-02-23T14:01:14;98432.97;;;9.64;100.00
46087;BME280;31824;49.648;8.640;2024-02-23T14:04:16;98425.31;;;9.54;100.00
46087;BME280;31824;49.648;8.640;2024-02-23T14:07:19;98426.72;;;9.62;100.00
46087;BME280;31824;49.648;8.640;2024-02-23T14:10:21;98418.44;;;9.56;100.00
46087;BME280;31824;49.648;8.640;2024-02-23T14:13:24;98419.28;;;9.55;100.00
46087;BME280;31824;49.648;8.640;2024-02-23T14:16:25;98426.59;;;9.47;100.00
46087;BME280;31824;49.648;8.640;2024-02-23T14:19:27;98425.19;;;9.39;100.00
46087;BME280;31824;49.648;8.640;2024-02-23T14:22:29;98422.25;;;9.48;100.00
46087;BME280;31824;49.648;8.640;2024-02-23T14:25:31;98422.50;;;9.64;100.00
46087;BME280;31824;49.648;8.640;2024-02-23T14:28:34;98416.38;;;9.77;100.00
46087;BME280;31824;49.648;8.640;2024-02-23T14:31:36;98418.28;;;10.20;100.00
46087;BME280;31824;49.648;8.640;2024-02-23T14:34:38;98405.63;;;10.68;100.00
46087;BME280;31824;49.648;8.640;2024-02-23T14:37:40;98418.50;;;10.09;100.00
46087;BME280;31824;49.648;8.640;2024-02-23T14:40:42;98413.06;;;9.93;100.00
46087;BME280;31824;49.648;8.640;2024-02-23T14:43:45;98407.75;;;10.33;100.00
46087;BME280;31824;49.648;8.640;2024-02-23T14:46:47;98403.84;;;10.40;100.00
46087;BME280;31824;49.648;8.640;2024-02-23T14:49:49;98412.44;;;10.79;100.00
46087;BME280;31824;49.648;8.640;2024-02-23T14:52:51;98412.03;;;10.31;100.00
46087;BME280;31824;49.648;8.640;2024-02-23T14:55:52;98406.28;;;9.96;100.00
46087;BME280;31824;49.648;8.640;2024-02-23T14:58:56;98407.38;;;9.73;100.00
46087;BME280;31824;49.648;8.640;2024-02-23T15:01:58;98409.81;;;9.84;100.00
46087;BME280;31824;49.648;8.640;2024-02-23T15:05:00;98400.66;;;9.25;100.00
46087;BME280;31824;49.648;8.640;2024-02-23T15:08:02;98398.09;;;8.88;100.00
46087;BME280;31824;49.648;8.640;2024-02-23T15:11:03;98396.38;;;8.63;100.00
46087;BME280;31824;49.648;8.640;2024-02-23T15:14:08;98400.25;;;8.56;100.00
46087;BME280;31824;49.648;8.640;2024-02-23T15:17:10;98390.56;;;8.67;100.00
46087;BME280;31824;49.648;8.640;2024-02-23T15:20:12;98396.59;;;8.66;100.00
46087;BME280;31824;49.648;8.640;2024-02-23T15:23:15;98404.09;;;8.73;100.00
46087;BME280;31824;49.648;8.640;2024-02-23T15:26:16;98408.56;;;9.13;100.00
46087;BME280;31824;49.648;8.640;2024-02-23T15:29:20;98408.78;;;9.68;100.00
46087;BME280;31824;49.648;8.640;2024-02-23T15:32:21;98410.09;;;9.75;100.00
46087;BME280;31824;49.648;8.640;2024-02-23T15:35:23;98400.72;;;9.78;100.00
46087;BME280;31824;49.648;8.640;2024-02-23T15:38:28;98395.88;;;9.58;100.00
46087;BME280;31824;49.648;8.640;2024-02-23T15:41:29;98387.38;;;9.35;100.00
46087;BME280;31824;49.648;8.640;2024-02-23T15:44:33;98380.69;;;9.27;100.00
46087;BME280;31824;49.648;8.640;2024-02-23T15:47:35;98382.72;;;9.31;100.00
46087;BME280;31824;49.648;8.640;2024-02-23T15:50:37;98380.41;;;9.22;100.00
46087;BME280;31824;49.648;8.640;2024-02-23T15:53:59;98376.47;;;8.90;100.00
46087;BME280;31824;49.648;8.640;2024-02-23T15:57:00;98378.66;;;8.84;100.00
46087;BME280;31824;49.648;8.640;2024-02-23T16:00:06;98385.38;;;8.81;100.00
46087;BME280;31824;49.648;8.640;2024-02-23T16:03:09;98392.94;;;8.76;100.00
46087;BME280;31824;49.648;8.640;2024-02-23T16:06:11;98390.03;;;8.85;100.00